createdAt,value
2023-05-22T00:02:11.183Z,3.40
2023-05-22T00:04:40.016Z,4.30
2023-05-22T00:07:09.706Z,4.47
2023-05-22T00:09:38.203Z,4.20
2023-05-22T00:12:07.506Z,4.00
2023-05-22T00:14:35.593Z,4.32
2023-05-22T00:17:04.573Z,4.30
2023-05-22T00:19:33.118Z,3.47
2023-05-22T00:22:01.298Z,3.55
2023-05-22T00:24:31.968Z,4.00
2023-05-22T00:27:00.554Z,4.47
2023-05-22T00:29:28.958Z,4.30
2023-05-22T00:31:58.833Z,3.67
2023-05-22T00:34:27.508Z,3.77
2023-05-22T00:36:55.865Z,3.80
2023-05-22T00:39:24.184Z,3.25
2023-05-22T00:41:55.167Z,3.47
2023-05-22T00:44:25.103Z,4.13
2023-05-22T00:46:53.734Z,3.38
2023-05-22T00:49:24.167Z,4.20
2023-05-22T00:51:52.364Z,3.53
2023-05-22T00:54:20.668Z,4.05
2023-05-22T00:56:49.727Z,4.13
2023-05-22T00:59:20.974Z,3.85
2023-05-22T01:01:50.325Z,3.65
2023-05-22T01:04:19.212Z,4.30
2023-05-22T01:06:50.092Z,3.80
2023-05-22T01:09:18.534Z,4.00
2023-05-22T01:11:59.754Z,4.80
2023-05-22T01:14:37.684Z,4.22
2023-05-22T01:17:13.802Z,4.15
2023-05-22T01:20:01.611Z,4.40
2023-05-22T01:22:50.033Z,3.80
2023-05-22T01:25:37.255Z,3.20
2023-05-22T01:28:31.457Z,3.70
2023-05-22T01:31:03.621Z,3.97
2023-05-22T01:33:35.144Z,3.67
2023-05-22T01:36:04.667Z,4.85
2023-05-22T01:38:35.180Z,3.85
2023-05-22T01:41:03.956Z,4.65
2023-05-22T01:43:32.856Z,4.10
2023-05-22T01:48:33.133Z,3.10
2023-05-22T01:51:08.776Z,4.00
2023-05-22T01:53:45.051Z,3.78
2023-05-22T01:56:16.481Z,4.28
2023-05-22T01:58:52.772Z,4.63
2023-05-22T02:01:25.452Z,4.97
2023-05-22T02:03:58.616Z,4.93
2023-05-22T02:06:29.914Z,4.40
2023-05-22T02:08:58.655Z,4.47
2023-05-22T02:11:29.515Z,4.43
2023-05-22T02:13:58.412Z,4.32
2023-05-22T02:16:28.856Z,5.22
2023-05-22T02:19:06.335Z,4.65
2023-05-22T02:21:35.750Z,5.05
2023-05-22T02:24:04.995Z,5.77
2023-05-22T02:26:33.189Z,5.35
2023-05-22T02:29:02.520Z,5.32
2023-05-22T02:31:33.636Z,4.93
2023-05-22T02:34:05.452Z,5.60
2023-05-22T02:36:34.432Z,5.20
2023-05-22T02:39:03.079Z,5.80
2023-05-22T02:41:31.913Z,5.45
2023-05-22T02:44:00.049Z,4.85
2023-05-22T02:46:28.426Z,5.50
2023-05-22T02:48:57.966Z,4.90
2023-05-22T02:53:54.496Z,4.57
2023-05-22T02:56:24.331Z,4.95
2023-05-22T03:01:21.828Z,4.75
2023-05-22T03:03:50.818Z,4.60
2023-05-22T03:06:21.569Z,4.82
2023-05-22T03:08:49.770Z,5.15
2023-05-22T03:11:18.355Z,4.80
2023-05-22T03:13:46.952Z,4.65
2023-05-22T03:16:15.666Z,4.68
2023-05-22T03:18:46.747Z,5.18
2023-05-22T03:21:16.254Z,5.05
2023-05-22T03:23:46.580Z,4.50
2023-05-22T03:26:15.160Z,4.43
2023-05-22T03:28:43.596Z,4.80
2023-05-22T03:31:13.349Z,4.18
2023-05-22T03:33:57.476Z,3.85
2023-05-22T03:36:26.251Z,4.22
2023-05-22T03:38:56.742Z,4.93
2023-05-22T03:41:25.478Z,4.10
2023-05-22T03:43:53.883Z,5.05
2023-05-22T03:48:52.358Z,3.88
2023-05-22T03:51:20.593Z,4.25
2023-05-22T03:53:50.747Z,4.10
2023-05-22T03:56:21.079Z,3.78
2023-05-22T03:58:50.546Z,3.95
2023-05-22T04:01:18.846Z,3.50
2023-05-22T04:03:47.423Z,4.32
2023-05-22T04:06:15.981Z,4.43
2023-05-22T04:08:44.504Z,4.45
2023-05-22T04:11:15.693Z,3.95
2023-05-22T04:13:46.677Z,4.18
2023-05-22T04:16:17.498Z,4.43
2023-05-22T04:18:48.773Z,4.53
2023-05-22T04:23:47.944Z,4.80
2023-05-22T04:26:18.073Z,4.55
2023-05-22T04:28:47.699Z,4.40
2023-05-22T04:31:16.302Z,4.72
2023-05-22T04:33:48.235Z,4.75
2023-05-22T04:36:17.672Z,4.78
2023-05-22T04:38:47.584Z,4.97
2023-05-22T04:41:18.167Z,5.25
2023-05-22T04:43:48.465Z,5.20
2023-05-22T04:46:17.160Z,5.07
2023-05-22T04:48:47.430Z,5.32
2023-05-22T04:51:17.517Z,5.32
2023-05-22T04:53:49.780Z,4.85
2023-05-22T04:56:31.833Z,5.03
2023-05-22T04:59:09.583Z,5.63
2023-05-22T05:01:39.889Z,5.40
2023-05-22T05:04:08.311Z,5.10
2023-05-22T05:06:38.054Z,5.75
2023-05-22T05:09:07.025Z,6.13
2023-05-22T05:11:38.231Z,5.65
2023-05-22T05:14:16.286Z,5.20
2023-05-22T05:16:48.200Z,4.82
2023-05-22T05:19:33.193Z,4.65
2023-05-22T05:22:07.464Z,5.50
2023-05-22T05:24:36.265Z,5.32
2023-05-22T05:27:05.154Z,4.82
2023-05-22T05:29:35.044Z,5.72
2023-05-22T05:32:15.290Z,5.22
2023-05-22T05:34:58.865Z,5.57
2023-05-22T05:37:43.706Z,5.30
2023-05-22T05:40:14.637Z,6.28
2023-05-22T05:42:48.148Z,4.75
2023-05-22T05:45:20.418Z,5.40
2023-05-22T05:50:17.655Z,5.30
2023-05-22T05:52:47.803Z,5.38
2023-05-22T05:55:23.358Z,5.68
2023-05-22T05:57:52.497Z,5.57
2023-05-22T06:00:29.120Z,6.22
2023-05-22T06:02:59.964Z,6.20
2023-05-22T06:05:51.519Z,7.03
2023-05-22T06:08:26.082Z,6.28
2023-05-22T06:10:54.657Z,6.43
2023-05-22T06:13:39.814Z,6.97
2023-05-22T06:16:09.759Z,6.40
2023-05-22T06:18:38.263Z,6.43
2023-05-22T06:21:07.246Z,6.32
2023-05-22T06:23:38.108Z,6.95
2023-05-22T06:26:06.793Z,6.63
2023-05-22T06:28:39.653Z,7.57
2023-05-22T06:31:09.963Z,7.57
2023-05-22T06:33:44.201Z,7.10
2023-05-22T06:36:12.730Z,7.78
2023-05-22T06:38:42.487Z,7.13
2023-05-22T06:41:23.877Z,7.40
2023-05-22T06:43:52.338Z,7.53
2023-05-22T06:46:29.983Z,5.90
2023-05-22T06:49:07.635Z,7.03
2023-05-22T06:51:52.021Z,7.95
2023-05-22T06:54:21.561Z,6.40
2023-05-22T06:56:53.269Z,5.78
2023-05-22T06:59:22.143Z,6.75
2023-05-22T07:01:51.979Z,7.60
2023-05-22T07:04:28.216Z,5.82
2023-05-22T07:07:02.483Z,6.22
2023-05-22T07:09:31.226Z,7.32
2023-05-22T07:11:59.827Z,7.50
2023-05-22T07:14:29.236Z,7.65
2023-05-22T07:16:59.154Z,6.85
2023-05-22T07:19:32.252Z,7.45
2023-05-22T07:22:04.331Z,7.75
2023-05-22T07:24:36.013Z,8.07
2023-05-22T07:27:05.895Z,7.28
2023-05-22T07:29:35.484Z,7.65
2023-05-22T07:32:07.459Z,7.38
2023-05-22T07:34:37.345Z,6.82
2023-05-22T07:37:09.606Z,7.97
2023-05-22T07:39:38.925Z,8.68
2023-05-22T07:42:08.816Z,7.93
2023-05-22T07:44:44.044Z,8.60
2023-05-22T07:47:16.434Z,8.32
2023-05-22T07:49:45.119Z,7.53
2023-05-22T07:52:13.549Z,8.27
2023-05-22T07:54:43.485Z,7.82
2023-05-22T07:57:14.115Z,7.35
2023-05-22T07:59:44.197Z,8.07
2023-05-22T08:02:14.821Z,7.73
2023-05-22T08:04:44.869Z,7.28
2023-05-22T08:07:13.730Z,7.57
2023-05-22T08:09:41.985Z,7.78
2023-05-22T08:12:10.920Z,8.80
2023-05-22T08:14:40.221Z,7.55
2023-05-22T08:17:08.836Z,7.53
2023-05-22T08:19:37.288Z,7.30
2023-05-22T08:22:07.519Z,7.53
2023-05-22T08:24:35.952Z,8.13
2023-05-22T08:27:05.753Z,7.53
2023-05-22T08:29:34.313Z,7.20
2023-05-22T08:32:02.653Z,8.00
2023-05-22T08:34:32.477Z,7.63
2023-05-22T08:37:01.200Z,8.35
2023-05-22T08:39:31.352Z,8.13
2023-05-22T08:42:00.838Z,7.05
2023-05-22T08:46:59.671Z,7.22
2023-05-22T08:49:29.254Z,6.53
2023-05-22T08:52:04.349Z,7.70
2023-05-22T08:54:37.861Z,6.32
2023-05-22T08:57:08.135Z,6.95
2023-05-22T08:59:37.145Z,7.43
2023-05-22T09:02:06.908Z,6.88
2023-05-22T09:04:36.531Z,6.68
2023-05-22T09:07:06.653Z,7.07
2023-05-22T09:09:39.019Z,7.38
2023-05-22T09:12:10.504Z,6.75
2023-05-22T09:14:42.151Z,8.02
2023-05-22T09:17:16.312Z,7.22
2023-05-22T09:19:46.961Z,7.57
2023-05-22T09:22:16.846Z,6.93
2023-05-22T09:24:47.488Z,7.88
2023-05-22T09:27:15.920Z,7.30
2023-05-22T09:29:50.922Z,7.57
2023-05-22T09:32:20.469Z,6.50
2023-05-22T09:34:48.865Z,7.13
2023-05-22T09:37:18.201Z,7.50
2023-05-22T09:39:51.639Z,6.22
2023-05-22T09:42:20.900Z,6.50
2023-05-22T09:44:50.132Z,7.65
2023-05-22T09:52:19.218Z,6.63
2023-05-22T09:54:55.496Z,6.72
2023-05-22T09:57:26.669Z,7.07
2023-05-22T09:59:58.419Z,6.82
2023-05-22T10:02:28.554Z,6.53
2023-05-22T10:04:57.539Z,5.88
2023-05-22T10:07:31.410Z,5.88
2023-05-22T10:10:08.794Z,6.00
2023-05-22T10:12:43.521Z,6.72
2023-05-22T10:15:12.842Z,6.05
2023-05-22T10:17:42.165Z,6.00
2023-05-22T10:20:11.940Z,6.03
2023-05-22T10:22:40.188Z,5.63
2023-05-22T10:25:13.067Z,6.03
2023-05-22T10:27:41.890Z,5.97
2023-05-22T10:30:20.732Z,5.70
2023-05-22T10:33:14.010Z,6.07
2023-05-22T10:35:45.478Z,5.45
2023-05-22T10:38:29.178Z,6.07
2023-05-22T10:41:00.263Z,6.40
2023-05-22T10:43:31.364Z,6.63
2023-05-22T10:46:07.416Z,5.20
2023-05-22T10:48:39.715Z,6.05
2023-05-22T10:51:08.751Z,4.90
2023-05-22T10:53:38.163Z,5.28
2023-05-22T10:56:15.802Z,6.13
2023-05-22T10:58:46.606Z,5.60
2023-05-22T11:01:18.169Z,5.65
2023-05-22T11:03:57.263Z,6.00
2023-05-22T11:06:36.235Z,5.80
2023-05-22T11:09:19.736Z,5.93
2023-05-22T11:12:18.247Z,6.03
2023-05-22T11:14:51.465Z,6.03
2023-05-22T11:17:23.226Z,5.93
2023-05-22T11:19:59.672Z,5.38
2023-05-22T11:22:35.632Z,5.82
2023-05-22T11:25:11.519Z,5.55
2023-05-22T11:27:42.385Z,5.18
2023-05-22T11:30:12.005Z,5.03
2023-05-22T11:32:44.389Z,6.65
2023-05-22T11:35:15.303Z,5.97
2023-05-22T11:37:43.661Z,4.53
2023-05-22T11:40:14.849Z,5.43
2023-05-22T11:42:45.671Z,5.75
2023-05-22T11:45:14.350Z,4.95
2023-05-22T11:47:43.615Z,4.15
2023-05-22T11:50:13.099Z,4.32
2023-05-22T11:52:44.178Z,4.32
2023-05-22T11:55:12.644Z,4.25
2023-05-22T11:57:43.394Z,5.20
2023-05-22T12:00:15.217Z,4.55
2023-05-22T12:02:47.628Z,4.45
2023-05-22T12:05:17.120Z,4.18
2023-05-22T12:07:45.652Z,4.43
2023-05-22T12:10:17.443Z,4.07
2023-05-22T12:12:46.155Z,3.75
2023-05-22T12:15:20.084Z,3.70
2023-05-22T12:17:48.798Z,4.20
2023-05-22T12:20:17.249Z,3.65
2023-05-22T12:22:46.947Z,3.40
2023-05-22T12:25:17.402Z,3.75
2023-05-22T12:27:46.765Z,3.95
2023-05-22T12:30:17.954Z,3.70
2023-05-22T12:32:50.203Z,3.83
2023-05-22T12:35:19.517Z,4.93
2023-05-22T12:37:51.813Z,3.83
2023-05-22T12:40:20.720Z,3.72
2023-05-22T12:42:49.675Z,3.90
2023-05-22T12:45:19.601Z,3.63
2023-05-22T12:47:48.188Z,4.15
2023-05-22T12:50:16.408Z,3.65
2023-05-22T12:52:44.476Z,3.83
2023-05-22T12:55:12.725Z,4.27
2023-05-22T12:57:41.240Z,3.38
2023-05-22T13:00:10.437Z,3.80
2023-05-22T13:02:40.282Z,3.90
2023-05-22T13:05:08.987Z,3.80
2023-05-22T13:07:38.368Z,3.88
2023-05-22T13:10:07.584Z,3.47
2023-05-22T13:12:36.310Z,3.80
2023-05-22T13:15:05.914Z,4.00
2023-05-22T13:17:33.974Z,4.15
2023-05-22T13:20:04.360Z,3.78
2023-05-22T13:22:32.772Z,3.72
2023-05-22T13:25:01.201Z,3.58
2023-05-22T13:27:30.722Z,3.95
2023-05-22T13:30:01.445Z,3.90
2023-05-22T13:32:29.848Z,4.40
2023-05-22T13:34:58.129Z,4.75
2023-05-22T13:37:27.812Z,3.72
2023-05-22T13:39:56.281Z,3.50
2023-05-22T13:42:24.926Z,3.88
2023-05-22T13:44:52.984Z,4.05
2023-05-22T13:47:22.833Z,3.00
2023-05-22T13:49:51.517Z,3.78
2023-05-22T13:52:20.050Z,3.25
2023-05-22T13:54:50.202Z,3.83
2023-05-22T13:57:18.438Z,4.03
2023-05-22T13:59:46.770Z,3.97
2023-05-22T14:02:15.157Z,3.80
2023-05-22T14:04:43.413Z,4.57
2023-05-22T14:07:11.910Z,3.47
2023-05-22T14:09:41.563Z,4.07
2023-05-22T14:12:11.126Z,4.30
2023-05-22T14:14:39.315Z,4.05
2023-05-22T14:17:09.480Z,3.90
2023-05-22T14:19:39.859Z,4.20
2023-05-22T14:22:08.152Z,4.28
2023-05-22T14:24:36.550Z,5.25
2023-05-22T14:27:05.670Z,4.70
2023-05-22T14:29:35.354Z,5.03
2023-05-22T14:32:05.281Z,4.53
2023-05-22T14:34:33.773Z,4.88
2023-05-22T14:37:01.992Z,4.05
2023-05-22T14:39:30.560Z,4.60
2023-05-22T14:41:58.994Z,4.90
2023-05-22T14:44:27.254Z,4.00
2023-05-22T14:46:57.392Z,4.27
2023-05-22T14:49:25.543Z,4.80
2023-05-22T14:51:54.577Z,4.55
2023-05-22T14:54:23.783Z,3.90
2023-05-22T14:56:52.271Z,4.05
2023-05-22T14:59:20.862Z,4.13
2023-05-22T15:01:50.662Z,4.35
2023-05-22T15:04:20.385Z,4.60
2023-05-22T15:06:48.660Z,4.63
2023-05-22T15:09:18.264Z,4.60
2023-05-22T15:11:49.495Z,4.50
2023-05-22T15:14:17.958Z,4.20
2023-05-22T15:16:46.542Z,4.43
2023-05-22T15:19:14.969Z,3.72
2023-05-22T15:21:44.750Z,4.20
2023-05-22T15:24:13.080Z,3.90
2023-05-22T15:26:41.657Z,4.00
2023-05-22T15:29:11.607Z,3.90
2023-05-22T15:31:42.681Z,3.78
2023-05-22T15:34:10.900Z,3.53
2023-05-22T15:36:40.505Z,3.67
2023-05-22T15:39:10.841Z,3.63
2023-05-22T15:41:39.355Z,3.40
2023-05-22T15:44:10.832Z,3.42
2023-05-22T15:46:39.567Z,4.00
2023-05-22T15:49:15.161Z,3.60
2023-05-22T15:51:43.620Z,3.92
2023-05-22T15:54:18.202Z,3.53
2023-05-22T15:56:46.588Z,3.20
2023-05-22T15:59:15.483Z,3.03
2023-05-22T16:01:44.111Z,3.95
2023-05-22T16:04:12.574Z,4.00
2023-05-22T16:06:41.010Z,3.50
2023-05-22T16:09:09.998Z,4.20
2023-05-22T16:11:39.588Z,3.63
2023-05-22T16:14:07.752Z,3.70
2023-05-22T16:16:35.953Z,3.42
2023-05-22T16:19:04.593Z,3.45
2023-05-22T16:21:32.854Z,4.13
2023-05-22T16:24:00.995Z,3.03
2023-05-22T16:26:33.385Z,4.32
2023-05-22T16:29:08.683Z,3.85
2023-05-22T16:31:41.045Z,3.38
2023-05-22T16:34:09.434Z,4.30
2023-05-22T16:36:37.509Z,4.03
2023-05-22T16:39:07.815Z,4.80
2023-05-22T16:41:38.318Z,3.90
2023-05-22T16:44:08.239Z,4.70
2023-05-22T16:46:36.499Z,5.10
2023-05-22T16:49:04.691Z,4.80
2023-05-22T16:51:32.845Z,5.18
2023-05-22T16:54:01.064Z,6.13
2023-05-22T16:56:29.320Z,5.18
2023-05-22T16:58:57.526Z,6.28
2023-05-22T17:01:27.685Z,5.82
2023-05-22T17:03:58.134Z,5.35
2023-05-22T17:06:27.723Z,5.53
2023-05-22T17:08:56.006Z,5.47
2023-05-22T17:11:26.226Z,5.88
2023-05-22T17:13:54.647Z,5.10
2023-05-22T17:16:23.018Z,6.40
2023-05-22T17:18:54.818Z,5.77
2023-05-22T17:21:24.193Z,4.80
2023-05-22T17:23:52.486Z,4.75
2023-05-22T17:26:21.089Z,6.38
2023-05-22T17:28:49.334Z,5.23
2023-05-22T17:31:17.453Z,5.13
2023-05-22T17:33:45.806Z,5.90
2023-05-22T17:36:15.467Z,5.35
2023-05-22T17:38:44.531Z,4.82
2023-05-22T17:41:12.835Z,5.25
2023-05-22T17:43:41.393Z,5.47
2023-05-22T17:46:09.832Z,5.10
2023-05-22T17:48:38.415Z,5.40
2023-05-22T17:51:06.693Z,4.50
2023-05-22T17:53:37.745Z,4.53
2023-05-22T17:56:08.408Z,3.97
2023-05-22T17:58:36.787Z,3.67
2023-05-22T18:01:05.038Z,3.70
2023-05-22T18:03:33.946Z,2.70
2023-05-22T18:06:02.756Z,2.55
2023-05-22T18:08:31.570Z,3.33
2023-05-22T18:11:01.240Z,3.10
2023-05-22T18:13:29.697Z,3.45
2023-05-22T18:15:57.879Z,3.35
2023-05-22T18:18:27.435Z,2.85
2023-05-22T18:20:56.236Z,3.70
2023-05-22T18:23:24.554Z,2.75
2023-05-22T18:25:54.783Z,3.33
2023-05-22T18:28:26.505Z,3.22
2023-05-22T18:30:55.053Z,3.85
2023-05-22T18:33:25.598Z,3.42
2023-05-22T18:35:54.146Z,4.22
2023-05-22T18:38:22.529Z,3.05
2023-05-22T18:40:52.075Z,3.53
2023-05-22T18:45:53.368Z,3.72
2023-05-22T18:48:22.092Z,3.10
2023-05-22T18:50:50.612Z,3.20
2023-05-22T18:53:19.119Z,3.97
2023-05-22T18:55:48.614Z,4.07
2023-05-22T19:00:45.709Z,3.00
2023-05-22T19:03:15.487Z,3.10
2023-05-22T19:08:12.285Z,2.43
2023-05-22T19:10:41.920Z,3.55
2023-05-22T19:13:11.594Z,3.20
2023-05-22T19:18:08.207Z,3.05
2023-05-22T19:20:38.196Z,3.50
2023-05-22T19:23:07.215Z,3.22
2023-05-22T19:25:36.116Z,2.88
2023-05-22T19:28:05.144Z,3.17
2023-05-22T19:30:33.423Z,3.13
2023-05-22T19:33:01.716Z,3.22
2023-05-22T19:35:30.362Z,3.30
2023-05-22T19:37:59.889Z,3.78
2023-05-22T19:40:28.569Z,3.28
2023-05-22T19:42:57.955Z,3.85
2023-05-22T19:45:27.202Z,3.42
2023-05-22T19:47:56.830Z,2.72
2023-05-22T19:50:25.790Z,3.45
2023-05-22T19:52:54.386Z,2.95
2023-05-22T19:55:24.173Z,3.38
2023-05-22T19:57:52.603Z,3.45
2023-05-22T20:00:21.810Z,3.10
2023-05-22T20:02:50.397Z,3.60
2023-05-22T20:05:18.709Z,3.17
2023-05-22T20:07:48.569Z,3.47
2023-05-22T20:12:47.200Z,3.08
2023-05-22T20:15:17.759Z,3.13
2023-05-22T20:17:47.523Z,3.00
2023-05-22T20:20:15.996Z,2.65
2023-05-22T20:22:44.775Z,4.25
2023-05-22T20:25:13.407Z,3.65
2023-05-22T20:27:41.717Z,3.75
2023-05-22T20:30:13.409Z,3.53
2023-05-22T20:32:42.649Z,3.58
2023-05-22T20:35:11.395Z,3.28
2023-05-22T20:37:41.734Z,4.03
2023-05-22T20:40:11.100Z,4.25
2023-05-22T20:42:43.691Z,3.75
2023-05-22T20:45:18.382Z,4.28
2023-05-22T20:47:46.868Z,4.05
2023-05-22T20:50:15.836Z,4.10
2023-05-22T20:52:46.083Z,3.93
2023-05-22T20:55:14.574Z,3.40
2023-05-22T20:57:42.731Z,4.47
2023-05-22T21:00:13.950Z,4.25
2023-05-22T21:02:44.198Z,4.28
2023-05-22T21:05:12.381Z,3.90
2023-05-22T21:07:40.531Z,5.13
2023-05-22T21:10:09.926Z,4.45
2023-05-22T21:12:38.105Z,4.07
2023-05-22T21:15:07.783Z,3.67
2023-05-22T21:17:35.994Z,4.57
2023-05-22T21:20:06.689Z,3.90
2023-05-22T21:22:34.777Z,4.63
2023-05-22T21:25:03.676Z,3.60
2023-05-22T21:27:32.139Z,4.90
2023-05-22T21:30:00.420Z,4.18
2023-05-22T21:32:29.038Z,3.85
2023-05-22T21:34:57.521Z,4.60
2023-05-22T21:37:27.266Z,4.43
2023-05-22T21:39:55.652Z,4.70
2023-05-22T21:42:26.239Z,4.13
2023-05-22T21:44:54.582Z,4.70
2023-05-22T21:47:24.753Z,4.90
2023-05-22T21:49:53.054Z,5.15
2023-05-22T21:52:21.162Z,4.25
2023-05-22T21:54:51.016Z,5.00
2023-05-22T21:57:19.349Z,4.45
2023-05-22T21:59:48.287Z,4.05
2023-05-22T22:02:16.613Z,4.72
2023-05-22T22:04:45.084Z,4.88
2023-05-22T22:07:14.173Z,4.82
2023-05-22T22:09:42.607Z,4.28
2023-05-22T22:12:12.852Z,4.70
2023-05-22T22:14:41.264Z,5.10
2023-05-22T22:17:09.712Z,4.35
2023-05-22T22:19:38.273Z,4.63
2023-05-22T22:22:07.156Z,4.73
2023-05-22T22:24:35.469Z,4.70
2023-05-22T22:27:03.769Z,5.43
2023-05-22T22:29:33.332Z,4.72
2023-05-22T22:32:01.576Z,5.43
2023-05-22T22:34:32.325Z,5.38
2023-05-22T22:37:00.474Z,5.35
2023-05-22T22:39:28.620Z,4.53
2023-05-22T22:42:01.321Z,4.80
2023-05-22T22:44:29.490Z,5.95
2023-05-22T22:46:59.394Z,5.53
2023-05-22T22:49:27.737Z,5.88
2023-05-22T22:51:56.425Z,5.53
2023-05-22T22:54:24.746Z,5.30
2023-05-22T22:56:55.665Z,5.38
2023-05-22T22:59:24.050Z,6.00
2023-05-22T23:01:52.396Z,6.47
2023-05-22T23:04:22.011Z,5.28
2023-05-22T23:06:50.523Z,5.57
2023-05-22T23:09:19.144Z,6.00
2023-05-22T23:11:47.600Z,4.88
2023-05-22T23:14:16.636Z,6.07
2023-05-22T23:16:45.229Z,5.18
2023-05-22T23:19:13.819Z,5.43
2023-05-22T23:21:43.557Z,6.55
2023-05-22T23:24:11.830Z,6.22
2023-05-22T23:26:40.364Z,6.55
2023-05-22T23:29:08.502Z,7.43
2023-05-22T23:31:37.014Z,7.80
2023-05-22T23:34:05.828Z,7.40
2023-05-22T23:36:34.025Z,5.97
2023-05-22T23:39:03.676Z,7.53
2023-05-22T23:44:00.833Z,9.75
2023-05-22T23:46:29.667Z,9.27
2023-05-22T23:48:57.984Z,10.93
2023-05-22T23:51:26.176Z,9.35
2023-05-22T23:53:54.316Z,11.05
2023-05-22T23:56:23.861Z,9.57
2023-05-22T23:58:52.101Z,9.85
